Time;durP1;ratioP1;P1;durP2;ratioP2;P2;SDS_P1;SDS_P2;PMS_P1;PMS_P2;Temp;Humidity;BMP_temperature;BMP_pressure;BME280_temperature;BME280_humidity;BME280_pressure;Samples;Min_cycle;Max_cycle;Signal;HPM_P1;HPM_P2
2021/09/12 00:00:09;;;;;;;11.48;8.40;;;;;;;16.62;100.00;100369.34;5055444;28;20056;-76
2021/09/12 00:02:38;;;;;;;13.85;8.20;;;;;;;16.63;100.00;100371.91;5056085;28;20072;-75
2021/09/12 00:05:06;;;;;;;16.58;7.57;;;;;;;16.59;100.00;100364.19;5054586;28;20441;-75
2021/09/12 00:07:33;;;;;;;11.40;7.97;;;;;;;16.60;100.00;100363.25;5053915;28;20122;-75
2021/09/12 00:10:00;;;;;;;9.88;7.93;;;;;;;16.57;100.00;100367.03;5047684;28;20315;-77
2021/09/12 00:12:28;;;;;;;14.57;7.43;;;;;;;16.65;100.00;100372.63;5035042;28;20060;-75
2021/09/12 00:14:55;;;;;;;11.88;7.65;;;;;;;16.72;100.00;100366.75;5035150;28;20100;-73
2021/09/12 00:17:21;;;;;;;11.27;8.05;;;;;;;16.69;100.00;100362.47;5035303;28;20081;-75
2021/09/12 00:19:49;;;;;;;11.52;7.57;;;;;;;16.75;100.00;100364.63;5036409;28;20041;-75
2021/09/12 00:22:17;;;;;;;15.93;8.45;;;;;;;16.83;99.71;100377.44;5032669;28;20057;-75
2021/09/12 00:24:43;;;;;;;12.82;7.85;;;;;;;16.82;99.78;100370.34;5035498;28;20041;-77
2021/09/12 00:27:10;;;;;;;11.93;7.78;;;;;;;16.83;100.00;100374.75;5051483;28;20049;-75
2021/09/12 00:29:37;;;;;;;14.02;7.78;;;;;;;16.77;99.07;100357.28;5036317;28;20046;-75
2021/09/12 00:32:04;;;;;;;12.05;7.50;;;;;;;16.85;99.43;100380.91;5040766;28;20049;-75
2021/09/12 00:34:31;;;;;;;12.52;7.75;;;;;;;16.83;100.00;100375.63;5055868;28;20426;-75
2021/09/12 00:36:57;;;;;;;13.13;7.70;;;;;;;16.86;100.00;100376.34;5055847;28;20438;-75
2021/09/12 00:39:24;;;;;;;16.10;7.50;;;;;;;16.84;100.00;100371.09;5055748;28;20149;-75
2021/09/12 00:41:51;;;;;;;13.25;7.60;;;;;;;16.86;100.00;100371.81;5039356;28;20132;-75
2021/09/12 00:44:18;;;;;;;15.18;7.97;;;;;;;16.89;99.81;100373.41;5034780;28;20407;-76
2021/09/12 00:46:46;;;;;;;12.98;7.65;;;;;;;16.81;99.92;100356.03;5034687;28;20119;-76
2021/09/12 00:49:15;;;;;;;15.65;7.57;;;;;;;16.91;98.97;100368.72;5035606;28;20041;-76
2021/09/12 00:51:42;;;;;;;12.77;8.55;;;;;;;16.88;99.35;100369.00;5035540;28;20045;-76
2021/09/12 00:54:10;;;;;;;14.07;8.43;;;;;;;16.86;98.77;100358.34;5035370;28;20042;-75
2021/09/12 00:56:40;;;;;;;14.93;8.73;;;;;;;16.80;98.83;100364.25;5034529;28;20052;-75
2021/09/12 00:59:10;;;;;;;16.50;8.67;;;;;;;16.85;98.53;100372.81;5052107;28;20048;-76
2021/09/12 01:01:40;;;;;;;14.40;7.60;;;;;;;16.84;96.86;100368.41;5055453;28;20286;-75
2021/09/12 01:04:08;;;;;;;13.52;6.78;;;;;;;16.77;96.63;100372.59;5054286;28;20115;-76
2021/09/12 01:06:35;;;;;;;11.48;7.03;;;;;;;16.66;96.73;100355.47;5055381;28;20397;-76
2021/09/12 01:09:02;;;;;;;12.73;7.00;;;;;;;16.72;96.56;100364.03;5055288;28;20056;-76
2021/09/12 01:11:29;;;;;;;12.38;7.25;;;;;;;16.70;96.50;100365.03;5055449;28;20741;-76
2021/09/12 01:13:56;;;;;;;11.82;7.35;;;;;;;16.63;96.28;100361.16;5055310;28;20044;-76
2021/09/12 01:16:23;;;;;;;12.35;6.95;;;;;;;16.63;96.03;100355.75;5055121;28;20080;-76
2021/09/12 01:18:50;;;;;;;11.73;6.40;;;;;;;16.53;96.76;100344.03;5053984;28;20438;-75
2021/09/12 01:21:23;;;;;;;10.10;6.72;;;;;;;16.63;96.48;100355.75;5061280;28;20087;-75
2021/09/12 01:23:51;;;;;;;13.88;6.50;;;;;;;16.63;96.06;100355.75;5067697;28;20052;-76
2021/09/12 01:26:23;;;;;;;14.57;7.85;;;;;;;16.58;95.92;100343.63;5068753;28;20045;-76
2021/09/12 01:28:51;;;;;;;13.98;6.10;;;;;;;16.49;96.82;100342.56;5055719;28;20045;-75
2021/09/12 01:31:29;;;;;;;10.90;6.82;;;;;;;16.49;97.29;100354.19;5054350;28;20407;-75
2021/09/12 01:33:57;;;;;;;10.73;6.65;;;;;;;16.47;97.20;100349.91;5035100;28;20384;-75
2021/09/12 01:36:24;;;;;;;15.90;7.13;;;;;;;16.40;97.70;100346.91;5033734;28;20064;-75
2021/09/12 01:38:51;;;;;;;12.00;6.22;;;;;;;16.31;98.15;100339.56;5017229;28;20045;-75
2021/09/12 01:41:18;;;;;;;11.88;6.40;;;;;;;16.32;98.39;100357.41;5034881;28;20041;-75
2021/09/12 01:43:47;;;;;;;13.05;7.38;;;;;;;16.24;98.51;100339.22;5034679;28;20060;-75
2021/09/12 01:46:15;;;;;;;9.43;6.32;;;;;;;16.29;98.73;100353.16;5034779;28;20037;-75
2021/09/12 01:48:43;;;;;;;14.00;6.60;;;;;;;16.18;98.97;100347.78;5034723;28;20060;-76
2021/09/12 01:51:10;;;;;;;15.38;7.38;;;;;;;16.07;99.52;100330.66;5034641;28;20065;-75
2021/09/12 01:53:38;;;;;;;13.65;6.82;;;;;;;16.15;99.43;100349.78;5034748;28;20057;-74
2021/09/12 01:56:05;;;;;;;14.85;7.93;;;;;;;16.02;99.78;100343.69;5034572;28;20076;-74
2021/09/12 01:58:32;;;;;;;14.15;7.53;;;;;;;16.07;99.87;100341.44;5033270;28;20115;-75
2021/09/12 02:00:59;;;;;;;16.73;7.90;;;;;;;16.10;99.41;100349.28;5034698;28;20113;-76
2021/09/12 02:03:35;;;;;;;11.38;7.15;;;;;;;15.98;100.00;100355.66;5033840;28;20038;-75
2021/09/12 02:06:05;;;;;;;15.73;7.75;;;;;;;15.85;100.00;100345.84;5034509;28;20434;-76
2021/09/12 02:08:32;;;;;;;17.08;7.40;;;;;;;15.88;100.00;100351.00;5033384;28;20045;-75
2021/09/12 02:10:59;;;;;;;15.13;7.57;;;;;;;15.69;100.00;100329.22;5033262;28;20116;-76
2021/09/12 02:13:26;;;;;;;16.70;7.75;;;;;;;15.59;100.00;100338.03;5033500;28;20045;-76
2021/09/12 02:15:54;;;;;;;15.43;7.53;;;;;;;15.66;100.00;100351.84;5034424;28;20045;-76
2021/09/12 02:18:22;;;;;;;14.73;7.85;;;;;;;15.59;100.00;100347.94;5033283;28;20061;-76
2021/09/12 02:20:49;;;;;;;9.18;7.45;;;;;;;15.55;100.00;100350.03;5034331;28;20045;-76
2021/09/12 02:23:16;;;;;;;14.75;8.07;;;;;;;15.56;100.00;100351.72;5034510;28;20320;-76
2021/09/12 02:25:42;;;;;;;15.68;7.95;;;;;;;15.53;100.00;100349.25;5033161;28;20108;-76
2021/09/12 02:28:09;;;;;;;13.80;8.18;;;;;;;15.53;100.00;100346.56;5034167;28;20057;-76
2021/09/12 02:30:36;;;;;;;12.02;8.25;;;;;;;15.49;100.00;100353.19;5034289;28;20048;-76
2021/09/12 02:33:03;;;;;;;12.60;8.95;;;;;;;15.39;100.00;100338.75;5049381;28;20037;-76
2021/09/12 02:35:30;;;;;;;16.08;9.23;;;;;;;15.41;100.00;100347.56;5054025;28;20037;-76
2021/09/12 02:37:57;;;;;;;14.15;8.63;;;;;;;15.39;100.00;100344.13;5054151;28;20041;-76
2021/09/12 02:40:24;;;;;;;16.10;9.38;;;;;;;15.20;100.00;100342.91;5054335;28;20071;-76
2021/09/12 02:42:51;;;;;;;15.07;8.38;;;;;;;15.14;100.00;100330.75;5053947;28;20107;-76
2021/09/12 02:45:18;;;;;;;16.15;8.77;;;;;;;15.19;100.00;100342.03;5053085;28;20085;-76
2021/09/12 02:47:45;;;;;;;17.05;8.85;;;;;;;15.15;100.00;100334.31;5036407;28;20044;-76
2021/09/12 02:50:12;;;;;;;12.90;9.18;;;;;;;15.10;100.00;100342.75;5055690;28;20102;-76
2021/09/12 02:52:39;;;;;;;12.50;8.10;;;;;;;14.99;100.00;100334.66;5056709;28;20045;-76
2021/09/12 02:55:06;;;;;;;15.20;8.05;;;;;;;15.01;100.00;100351.50;5056446;28;20040;-77
2021/09/12 02:57:33;;;;;;;13.63;8.07;;;;;;;15.00;100.00;100347.09;5057554;28;20532;-76
2021/09/12 03:00:00;;;;;;;12.68;7.70;;;;;;;14.92;100.00;100359.31;5056393;28;20504;-76
2021/09/12 03:02:27;;;;;;;14.07;8.52;;;;;;;14.79;100.00;100348.66;5056458;28;20110;-76
2021/09/12 03:04:54;;;;;;;13.18;8.00;;;;;;;14.75;100.00;100351.66;5057545;28;20036;-76
2021/09/12 03:07:21;;;;;;;20.08;8.98;;;;;;;14.66;100.00;100353.19;5057736;28;20449;-76
2021/09/12 03:09:48;;;;;;;11.48;7.65;;;;;;;14.62;100.00;100357.94;5056451;28;20433;-76
2021/09/12 03:12:14;;;;;;;15.68;8.20;;;;;;;14.65;100.00;100356.84;5073098;28;20123;-76
2021/09/12 03:14:41;;;;;;;11.65;8.07;;;;;;;14.58;100.00;100355.59;5057319;28;20043;-75
2021/09/12 03:17:08;;;;;;;13.20;8.65;;;;;;;14.46;100.00;100347.50;5056202;28;20048;-75
2021/09/12 03:19:36;;;;;;;12.00;8.38;;;;;;;14.44;100.00;100327.09;5057280;28;20045;-76
2021/09/12 03:22:03;;;;;;;13.38;8.05;;;;;;;14.51;100.00;100344.47;5056213;28;20385;-76
2021/09/12 03:24:30;;;;;;;15.93;8.73;;;;;;;14.53;100.00;100346.06;5056094;28;20127;-76
2021/09/12 03:26:57;;;;;;;15.73;9.95;;;;;;;14.46;100.00;100334.06;5057058;28;20437;-75
2021/09/12 03:29:23;;;;;;;14.77;8.98;;;;;;;14.44;100.00;100338.66;5057146;28;20044;-75
2021/09/12 03:31:51;;;;;;;14.90;8.98;;;;;;;14.45;100.00;100345.78;5051571;28;20124;-75
2021/09/12 03:34:18;;;;;;;19.00;9.77;;;;;;;14.43;100.00;100346.88;5037145;28;20091;-75
2021/09/12 03:36:45;;;;;;;13.68;9.65;;;;;;;14.34;100.00;100349.25;5037110;28;20096;-75
2021/09/12 03:39:11;;;;;;;16.75;9.05;;;;;;;14.35;100.00;100340.25;5037880;28;20051;-77
2021/09/12 03:41:38;;;;;;;11.70;8.68;;;;;;;14.32;100.00;100344.97;5039465;28;20082;-76
2021/09/12 03:44:05;;;;;;;17.98;9.13;;;;;;;14.31;100.00;100340.56;5043665;28;20049;-77
2021/09/12 03:46:32;;;;;;;14.10;9.05;;;;;;;14.22;100.00;100332.22;5049856;28;20049;-77
2021/09/12 03:48:59;;;;;;;11.82;9.32;;;;;;;14.26;100.00;100338.22;5045083;28;20046;-77
2021/09/12 03:51:25;;;;;;;15.55;9.68;;;;;;;14.20;100.00;100328.81;5036535;28;20041;-76
2021/09/12 03:53:52;;;;;;;14.98;8.65;;;;;;;14.29;100.00;100338.00;5036306;28;20041;-76
2021/09/12 03:56:19;;;;;;;16.65;9.88;;;;;;;14.19;100.00;100334.28;5035772;28;20084;-76
2021/09/12 03:58:45;;;;;;;15.38;9.30;;;;;;;14.23;100.00;100343.81;5036696;28;20142;-76
2021/09/12 04:01:12;;;;;;;18.35;10.20;;;;;;;14.17;100.00;100349.66;5036637;28;20453;-77
2021/09/12 04:03:39;;;;;;;14.85;9.52;;;;;;;14.20;100.00;100338.66;5036661;28;20087;-76
2021/09/12 04:06:06;;;;;;;15.45;10.02;;;;;;;14.28;100.00;100343.47;5036573;28;20041;-77
2021/09/12 04:08:33;;;;;;;15.45;9.80;;;;;;;14.30;100.00;100330.78;5018972;28;20084;-76
2021/09/12 04:11:00;;;;;;;13.07;9.02;;;;;;;14.33;100.00;100333.25;5036689;28;20342;-76
2021/09/12 04:13:30;;;;;;;15.40;9.45;;;;;;;14.32;100.00;100336.94;5051778;28;20067;-77
2021/09/12 04:15:58;;;;;;;14.85;9.80;;;;;;;14.35;100.00;100340.25;5035257;28;20053;-76
2021/09/12 04:18:27;;;;;;;13.85;9.75;;;;;;;14.36;100.00;100335.72;5036356;28;20043;-76
2021/09/12 04:20:53;;;;;;;14.90;9.50;;;;;;;14.25;100.00;100334.69;5036246;28;20129;-78
2021/09/12 04:23:20;;;;;;;17.80;9.25;;;;;;;14.25;100.00;100337.38;5035119;28;20065;-76
2021/09/12 04:25:47;;;;;;;12.93;9.07;;;;;;;14.20;100.00;100326.13;5036540;28;20111;-75
2021/09/12 04:28:14;;;;;;;12.85;9.50;;;;;;;14.31;100.00;100338.75;5035213;28;20050;-76
2021/09/12 04:30:42;;;;;;;12.85;8.85;;;;;;;14.31;100.00;100340.56;5052409;28;20243;-76
2021/09/12 04:33:09;;;;;;;14.85;9.57;;;;;;;14.30;100.00;100338.84;5052148;28;20037;-75
2021/09/12 04:35:36;;;;;;;15.52;9.43;;;;;;;14.34;100.00;100340.34;5056062;28;20049;-74
2021/09/12 04:38:03;;;;;;;17.27;9.60;;;;;;;14.31;100.00;100344.13;5054831;28;20052;-75
2021/09/12 04:40:31;;;;;;;14.30;9.50;;;;;;;14.29;100.00;100345.19;5056138;28;20044;-75
2021/09/12 04:42:58;;;;;;;13.60;9.90;;;;;;;14.23;100.00;100344.66;5054524;28;20092;-76
2021/09/12 04:45:25;;;;;;;14.13;9.40;;;;;;;14.26;100.00;100341.78;5055710;28;20049;-76
2021/09/12 04:47:54;;;;;;;12.57;8.57;;;;;;;14.30;100.00;100342.41;5055571;28;20048;-76
2021/09/12 04:50:21;;;;;;;16.75;9.45;;;;;;;14.30;100.00;100347.78;5055523;28;20662;-78
2021/09/12 04:52:48;;;;;;;15.90;9.50;;;;;;;14.14;100.00;100337.31;5055468;28;20052;-74
2021/09/12 04:55:15;;;;;;;18.27;9.68;;;;;;;14.28;100.00;100351.53;5055507;28;20037;-73
2021/09/12 04:57:44;;;;;;;14.57;8.82;;;;;;;14.30;100.00;100352.28;5055321;28;20052;-74
2021/09/12 05:00:11;;;;;;;15.70;9.02;;;;;;;14.14;100.00;100342.66;5038061;28;20056;-77
2021/09/12 05:02:38;;;;;;;16.17;8.82;;;;;;;14.23;100.00;100352.72;5025684;28;20038;-76
2021/09/12 05:05:06;;;;;;;11.68;8.35;;;;;;;14.25;100.00;100366.03;5014670;28;20455;-74
2021/09/12 05:07:33;;;;;;;12.13;8.40;;;;;;;14.28;100.00;100359.59;5019398;28;20045;-74
2021/09/12 05:10:00;;;;;;;10.65;8.82;;;;;;;14.22;100.00;100351.00;5031031;28;20045;-77
2021/09/12 05:12:28;;;;;;;15.68;8.80;;;;;;;14.23;100.00;100350.03;5034448;28;20049;-75
2021/09/12 05:14:56;;;;;;;12.90;8.13;;;;;;;14.34;100.00;100351.09;5031733;28;20053;-76
2021/09/12 05:17:23;;;;;;;14.05;7.78;;;;;;;14.36;100.00;100357.19;5002352;28;20744;-75
2021/09/12 05:19:50;;;;;;;14.35;8.35;;;;;;;14.36;100.00;100351.81;5016594;28;20117;-72
2021/09/12 05:22:17;;;;;;;12.85;7.50;;;;;;;14.41;100.00;100360.41;5021715;28;20233;-77
2021/09/12 05:24:44;;;;;;;11.90;7.38;;;;;;;14.46;100.00;100354.69;5019843;28;20041;-75
2021/09/12 05:27:11;;;;;;;12.65;7.60;;;;;;;14.39;100.00;100346.25;5037577;28;20354;-76
2021/09/12 05:29:38;;;;;;;11.63;7.03;;;;;;;14.52;100.00;100365.84;5017517;28;20038;-76
2021/09/12 05:32:05;;;;;;;13.05;7.05;;;;;;;14.56;100.00;100379.03;5028651;28;20048;-78
2021/09/12 05:34:32;;;;;;;14.75;7.18;;;;;;;14.60;100.00;100375.16;5028917;28;20143;-76
2021/09/12 05:37:00;;;;;;;12.35;6.80;;;;;;;14.59;100.00;100365.38;5029869;28;20042;-75
2021/09/12 05:39:27;;;;;;;15.45;7.43;;;;;;;14.57;100.00;100364.63;5019429;28;20427;-78
2021/09/12 05:41:54;;;;;;;12.90;6.43;;;;;;;14.62;100.00;100370.50;5017630;28;20049;-75
2021/09/12 05:44:21;;;;;;;10.13;7.00;;;;;;;14.66;100.00;100382.75;5016789;28;20046;-75
2021/09/12 05:46:51;;;;;;;12.48;7.35;;;;;;;14.69;100.00;100379.81;5028983;28;20087;-79
2021/09/12 05:49:22;;;;;;;14.55;6.18;;;;;;;14.69;100.00;100376.25;5022772;28;20053;-82
2021/09/12 05:51:50;;;;;;;13.27;6.47;;;;;;;14.70;100.00;100375.31;5016872;28;20053;-77
2021/09/12 05:54:17;;;;;;;11.07;6.05;;;;;;;14.74;100.00;100388.44;5035865;28;20136;-76
2021/09/12 05:56:44;;;;;;;12.75;5.57;;;;;;;14.62;99.47;100365.13;5012534;28;20045;-81
2021/09/12 05:59:11;;;;;;;9.88;5.78;;;;;;;14.78;99.32;100383.69;5032602;28;20056;-77
2021/09/12 06:01:38;;;;;;;13.50;5.88;;;;;;;14.77;98.86;100382.81;5016627;28;20038;-74
2021/09/12 06:04:05;;;;;;;9.50;5.70;;;;;;;14.83;99.03;100397.63;5029996;28;20099;-76
2021/09/12 06:06:32;;;;;;;11.75;6.38;;;;;;;14.82;98.74;100387.00;5041006;28;20065;-75
2021/09/12 06:08:59;;;;;;;10.52;5.60;;;;;;;14.79;99.04;100386.25;5041496;28;20033;-76
2021/09/12 06:11:28;;;;;;;9.35;5.50;;;;;;;14.92;98.18;100401.44;5035421;28;20420;-76
2021/09/12 06:13:55;;;;;;;13.25;5.97;;;;;;;14.91;98.22;100395.22;5023329;28;20050;-78
2021/09/12 06:16:22;;;;;;;9.13;5.85;;;;;;;14.97;97.52;100393.88;5024047;28;20038;-78
2021/09/12 06:18:49;;;;;;;10.70;5.10;;;;;;;15.01;97.64;100405.25;5019372;28;20057;-77
2021/09/12 06:21:16;;;;;;;9.45;5.65;;;;;;;15.06;97.45;100403.97;5018082;28;20096;-77
2021/09/12 06:23:42;;;;;;;11.63;5.65;;;;;;;15.02;97.59;100401.59;5019076;28;20084;-76
2021/09/12 06:26:09;;;;;;;10.82;5.65;;;;;;;15.07;97.52;100404.78;5022914;28;20069;-75
2021/09/12 06:28:36;;;;;;;9.40;5.15;;;;;;;15.11;97.07;100403.59;5022793;28;20053;-76
2021/09/12 06:31:03;;;;;;;8.20;4.72;;;;;;;15.12;96.81;100396.38;5027925;28;20107;-74
2021/09/12 06:33:30;;;;;;;6.35;4.70;;;;;;;15.14;96.63;100400.66;5037954;28;20041;-78
2021/09/12 06:35:57;;;;;;;10.65;5.28;;;;;;;15.00;96.13;100374.84;5037755;28;20072;-76
2021/09/12 06:38:24;;;;;;;6.65;4.57;;;;;;;15.14;96.18;100405.19;5021445;28;20046;-76
2021/09/12 06:40:51;;;;;;;7.38;4.88;;;;;;;15.07;95.99;100377.91;5020671;28;20042;-77
2021/09/12 06:43:18;;;;;;;9.35;5.20;;;;;;;15.18;95.08;100399.47;5029905;28;20046;-78
2021/09/12 06:45:44;;;;;;;10.82;4.65;;;;;;;15.22;95.37;100405.47;5020553;28;20044;-78
2021/09/12 06:48:11;;;;;;;10.73;4.88;;;;;;;15.20;96.09;100400.19;5018261;28;20071;-78
2021/09/12 06:50:38;;;;;;;9.43;4.97;;;;;;;15.28;95.84;100402.31;5017840;28;20034;-76
2021/09/12 06:53:05;;;;;;;11.20;5.18;;;;;;;15.17;95.69;100388.81;5023073;28;20389;-79
2021/09/12 06:55:32;;;;;;;9.25;4.85;;;;;;;15.23;94.91;100388.34;5025768;28;20045;-78
2021/09/12 06:57:59;;;;;;;6.80;5.05;;;;;;;15.31;94.41;100411.97;5031284;28;20108;-77
2021/09/12 07:00:26;;;;;;;7.75;4.80;;;;;;;15.31;93.73;100406.59;5033759;28;20133;-76
2021/09/12 07:02:53;;;;;;;8.40;4.78;;;;;;;15.18;94.56;100382.47;5004591;28;20057;-78
2021/09/12 07:05:21;;;;;;;10.95;4.85;;;;;;;15.27;96.05;100405.09;5034323;28;20050;-76
2021/09/12 07:07:49;;;;;;;10.35;5.50;;;;;;;15.26;95.06;100400.72;5032565;28;20049;-79
2021/09/12 07:10:19;;;;;;;7.30;5.00;;;;;;;15.24;94.74;100398.13;5014335;28;20125;-80
2021/09/12 07:12:46;;;;;;;8.05;5.13;;;;;;;15.38;94.46;100407.84;5017787;28;20695;-78
2021/09/12 07:15:14;;;;;;;9.32;4.57;;;;;;;15.36;93.93;100390.09;5013101;28;20050;-81
2021/09/12 07:17:43;;;;;;;11.52;5.20;;;;;;;15.44;92.88;100406.47;5023248;28;20038;-79
2021/09/12 07:20:11;;;;;;;9.40;5.40;;;;;;;15.47;92.88;100409.78;5023445;28;20747;-78
2021/09/12 07:22:38;;;;;;;8.15;5.05;;;;;;;15.48;91.98;100397.22;5040583;28;20045;-75
2021/09/12 07:25:06;;;;;;;10.10;4.85;;;;;;;15.56;91.85;100399.28;5024915;28;20044;-76
2021/09/12 07:27:33;;;;;;;8.75;4.78;;;;;;;15.66;91.08;100407.50;5020650;28;20052;-77
2021/09/12 07:30:10;;;;;;;10.05;4.90;;;;;;;15.68;91.45;100389.41;5046928;28;20045;-76
2021/09/12 07:32:37;;;;;;;8.75;4.28;;;;;;;15.76;89.04;100408.50;5041623;28;20045;-77
2021/09/12 07:35:05;;;;;;;11.95;3.92;;;;;;;15.70;88.60;100400.91;5017515;28;20160;-75
2021/09/12 07:37:32;;;;;;;11.75;4.32;;;;;;;15.77;87.45;100412.03;5017737;28;20034;-76
2021/09/12 07:39:59;;;;;;;10.32;4.28;;;;;;;15.67;87.49;100411.88;5015566;28;20045;-74
2021/09/12 07:42:26;;;;;;;11.02;4.22;;;;;;;15.78;86.86;100406.53;5029776;28;20128;-76
2021/09/12 07:44:54;;;;;;;11.70;3.80;;;;;;;15.80;87.03;100412.63;5036991;28;20432;-77
2021/09/12 07:47:23;;;;;;;7.72;3.80;;;;;;;15.83;85.48;100416.91;5026259;28;20045;-75
2021/09/12 07:49:49;;;;;;;9.32;3.47;;;;;;;15.75;84.67;100409.47;5031965;28;20053;-77
2021/09/12 07:52:16;;;;;;;8.27;3.67;;;;;;;15.71;85.32;100421.44;5010906;28;20053;-76
2021/09/12 07:54:43;;;;;;;10.80;3.53;;;;;;;15.77;85.61;100417.41;5030375;28;20042;-74
2021/09/12 07:57:10;;;;;;;12.27;2.97;;;;;;;15.74;85.06;100407.72;5029802;28;20037;-78
2021/09/12 07:59:37;;;;;;;10.40;3.55;;;;;;;15.82;84.72;100416.06;5018845;28;20336;-75
2021/09/12 08:02:04;;;;;;;8.52;3.42;;;;;;;15.86;83.95;100411.31;5024197;28;20431;-78
2021/09/12 08:04:32;;;;;;;8.82;3.38;;;;;;;16.00;83.68;100423.69;5025752;28;20033;-74
2021/09/12 08:06:59;;;;;;;10.35;3.70;;;;;;;15.98;84.07;100422.97;5011374;28;20101;-76
2021/09/12 08:09:26;;;;;;;6.68;3.10;;;;;;;15.98;84.14;100417.56;5030126;28;20438;-80
2021/09/12 08:11:53;;;;;;;5.88;3.10;;;;;;;15.99;84.68;100419.28;5031341;28;20163;-78
2021/09/12 08:14:21;;;;;;;9.18;3.17;;;;;;;16.05;84.79;100421.47;5031922;28;20049;-77
2021/09/12 08:16:48;;;;;;;8.75;3.13;;;;;;;16.10;84.20;100426.50;5025823;28;20052;-74
2021/09/12 08:19:15;;;;;;;7.10;2.78;;;;;;;16.00;83.31;100404.84;5019075;28;20092;-75
2021/09/12 08:21:42;;;;;;;8.77;3.17;;;;;;;15.98;83.34;100412.19;5024210;28;20053;-75
2021/09/12 08:24:09;;;;;;;7.28;2.58;;;;;;;16.06;83.13;100404.34;5017938;28;20042;-74
2021/09/12 08:26:36;;;;;;;7.80;2.85;;;;;;;16.13;81.89;100416.34;5035066;28;20033;-76
2021/09/12 08:29:03;;;;;;;6.32;2.28;;;;;;;16.21;79.87;100425.63;5021004;28;20126;-80
2021/09/12 08:31:30;;;;;;;6.65;2.03;;;;;;;16.23;78.60;100424.53;5025912;28;20037;-75
2021/09/12 08:33:57;;;;;;;5.90;2.10;;;;;;;16.12;78.85;100430.78;5023286;28;20127;-75
2021/09/12 08:36:24;;;;;;;6.38;2.45;;;;;;;16.27;79.40;100419.75;5017304;28;20045;-76
2021/09/12 08:38:51;;;;;;;6.30;2.30;;;;;;;16.34;79.76;100425.50;5015696;28;20049;-78
2021/09/12 08:41:19;;;;;;;5.78;2.38;;;;;;;16.45;79.88;100427.31;5028142;28;20045;-76
2021/09/12 08:43:48;;;;;;;4.82;2.13;;;;;;;16.46;78.78;100419.13;5031034;28;20446;-75
2021/09/12 08:46:16;;;;;;;6.90;1.80;;;;;;;16.49;78.38;100418.84;5043249;28;20034;-79
2021/09/12 08:48:45;;;;;;;4.35;1.90;;;;;;;16.51;76.74;100416.03;5027176;28;20097;-75
2021/09/12 08:51:12;;;;;;;4.10;1.92;;;;;;;16.47;75.82;100420.84;5019347;28;20334;-75
2021/09/12 08:53:39;;;;;;;5.68;1.67;;;;;;;16.55;75.64;100425.56;5025559;28;20034;-75
2021/09/12 08:56:06;;;;;;;4.57;1.77;;;;;;;16.67;75.41;100429.13;5024392;28;20327;-74
2021/09/12 08:58:34;;;;;;;5.50;2.28;;;;;;;16.79;75.80;100419.16;5018362;28;20132;-77
2021/09/12 09:01:01;;;;;;;4.70;2.58;;;;;;;16.87;76.77;100422.06;5033265;28;20087;-78
2021/09/12 09:03:35;;;;;;;5.95;2.10;;;;;;;16.89;74.61;100419.22;5027247;28;20042;-73
2021/09/12 09:06:23;;;;;;;3.40;1.83;;;;;;;17.05;76.05;100435.00;5015996;28;20427;-75
2021/09/12 09:08:55;;;;;;;7.38;2.17;;;;;;;17.24;74.11;100429.78;5015215;28;20085;-76
2021/09/12 09:11:36;;;;;;;6.97;2.05;;;;;;;17.30;71.76;100441.00;5030980;28;20080;-75
2021/09/12 09:14:16;;;;;;;5.53;2.17;;;;;;;17.28;72.82;100435.75;5031809;28;20407;-78
2021/09/12 09:16:46;;;;;;;6.20;2.38;;;;;;;17.37;73.00;100434.97;5035412;28;20045;-75
2021/09/12 09:19:13;;;;;;;6.00;2.63;;;;;;;17.36;73.02;100427.88;5033860;28;20047;-76
2021/09/12 09:21:45;;;;;;;8.23;2.17;;;;;;;17.43;74.13;100422.78;5034274;28;20037;-76
2021/09/12 09:24:22;;;;;;;8.27;1.90;;;;;;;17.58;72.26;100426.00;5035524;28;20470;-76
2021/09/12 09:26:50;;;;;;;4.53;1.95;;;;;;;17.72;70.86;100423.94;5035115;28;20419;-78
2021/09/12 09:29:23;;;;;;;8.18;2.33;;;;;;;17.77;70.72;100424.41;5033909;28;20053;-79
2021/09/12 09:32:13;;;;;;;8.88;2.25;;;;;;;17.74;73.00;100425.53;5030481;28;20049;-74
2021/09/12 09:34:42;;;;;;;6.07;2.22;;;;;;;17.92;71.59;100425.75;5015216;28;20048;-75
2021/09/12 09:37:19;;;;;;;5.32;2.05;;;;;;;17.87;69.98;100427.16;5015235;28;20390;-75
2021/09/12 09:39:48;;;;;;;5.13;1.80;;;;;;;17.76;68.87;100420.84;5015327;28;20132;-73
2021/09/12 09:42:33;;;;;;;5.50;2.05;;;;;;;17.67;71.50;100418.97;5015414;28;20064;-74
2021/09/12 09:45:05;;;;;;;8.90;2.05;;;;;;;17.83;74.08;100423.00;5013877;28;20046;-73
2021/09/12 09:47:33;;;;;;;11.07;2.55;;;;;;;18.03;69.43;100418.56;5015180;28;20045;-72
2021/09/12 09:50:08;;;;;;;3.75;1.85;;;;;;;18.17;68.83;100410.13;5046907;28;20045;-74
2021/09/12 09:52:37;;;;;;;6.93;1.92;;;;;;;18.37;68.30;100407.47;5040319;28;20041;-76
2021/09/12 09:55:05;;;;;;;5.93;2.42;;;;;;;18.39;67.49;100404.59;5037306;28;20346;-73
2021/09/12 09:57:34;;;;;;;5.07;2.08;;;;;;;18.34;67.92;100378.00;5034015;28;20056;-72
2021/09/12 10:00:05;;;;;;;4.57;2.20;;;;;;;18.42;67.06;100404.34;5013980;28;20123;-73
2021/09/12 10:02:33;;;;;;;4.15;2.13;;;;;;;18.20;68.47;100400.88;5025612;28;20049;-74
2021/09/12 10:05:06;;;;;;;6.38;2.20;;;;;;;18.25;67.84;100390.50;5033207;28;20067;-74
2021/09/12 10:07:34;;;;;;;6.53;2.13;;;;;;;18.43;68.08;100384.44;5030903;28;20061;-75
2021/09/12 10:10:03;;;;;;;12.68;2.85;;;;;;;18.75;68.02;100393.28;5037924;28;20116;-75
2021/09/12 10:12:31;;;;;;;7.75;1.92;;;;;;;18.91;65.68;100398.13;5017080;28;20056;-74
2021/09/12 10:15:04;;;;;;;6.65;1.88;;;;;;;18.72;67.13;100402.53;5026436;28;20077;-74
2021/09/12 10:17:35;;;;;;;3.92;2.00;;;;;;;18.53;67.08;100397.97;5020111;28;20038;-76
2021/09/12 10:20:31;;;;;;;9.07;2.38;;;;;;;18.14;67.21;100396.88;5036029;28;20128;-74
2021/09/12 10:23:07;;;;;;;4.53;2.05;;;;;;;18.26;69.24;100403.00;5037245;28;20049;-74
2021/09/12 10:25:55;;;;;;;5.47;1.85;;;;;;;18.38;67.08;100400.19;5025974;28;20044;-73
2021/09/12 10:28:36;;;;;;;7.53;2.45;;;;;;;18.50;65.66;100403.63;5024679;28;20671;-74
2021/09/12 10:31:26;;;;;;;16.63;2.90;;;;;;;18.61;66.70;100405.38;5032562;28;20378;-75
2021/09/12 10:34:05;;;;;;;6.07;2.05;;;;;;;18.76;64.15;100401.25;5036958;28;20060;-74
2021/09/12 10:36:32;;;;;;;4.88;1.80;;;;;;;18.83;63.79;100397.00;5053903;28;20045;-76
2021/09/12 10:39:26;;;;;;;5.93;2.58;;;;;;;18.86;63.48;100387.75;5044913;28;20092;-75
2021/09/12 10:42:11;;;;;;;7.05;1.98;;;;;;;19.20;64.61;100395.44;5029819;28;20049;-74
2021/09/12 10:44:39;;;;;;;7.25;2.08;;;;;;;19.31;62.35;100386.31;5013105;28;20048;-79
2021/09/12 10:47:13;;;;;;;10.05;2.20;;;;;;;19.35;62.42;100349.81;5038380;28;20046;-76
2021/09/12 10:49:53;;;;;;;8.05;2.03;;;;;;;19.77;61.78;100386.44;5019205;28;20042;-74
2021/09/12 10:52:44;;;;;;;7.55;1.95;;;;;;;20.01;61.17;100389.66;5044667;28;20125;-74
2021/09/12 10:55:12;;;;;;;6.47;2.13;;;;;;;20.11;60.83;100379.63;5019956;28;20488;-73
2021/09/12 10:57:38;;;;;;;5.28;2.08;;;;;;;20.13;59.32;100402.00;5017977;28;20141;-74
2021/09/12 11:00:07;;;;;;;8.25;3.03;;;;;;;19.93;58.62;100390.38;5045138;28;20057;-76
2021/09/12 11:02:34;;;;;;;4.25;1.67;;;;;;;20.06;58.93;100376.53;5032856;28;20041;-78
2021/09/12 11:05:24;;;;;;;6.22;1.92;;;;;;;20.30;59.02;100372.38;5020233;28;20061;-75
2021/09/12 11:07:52;;;;;;;4.97;1.90;;;;;;;20.20;57.50;100380.56;5023074;28;20046;-74
2021/09/12 11:10:42;;;;;;;7.72;2.00;;;;;;;20.18;57.63;100369.03;5040706;28;20042;-75
2021/09/12 11:13:09;;;;;;;4.88;2.10;;;;;;;20.26;58.47;100365.56;5034128;28;20488;-74
2021/09/12 11:15:36;;;;;;;7.25;1.90;;;;;;;20.54;57.45;100373.66;5039132;28;20041;-72
2021/09/12 11:18:03;;;;;;;4.95;1.50;;;;;;;20.66;58.17;100380.56;5034001;28;20048;-73
2021/09/12 11:20:40;;;;;;;5.85;1.95;;;;;;;20.82;57.56;100370.88;5026318;28;20038;-75
2021/09/12 11:23:08;;;;;;;7.82;2.28;;;;;;;21.01;57.71;100376.16;5045996;28;20037;-74